In Rescue
 
June 26, 2019 9:57 PM EDT
Weather Information
Wind Direction
  ---
Wind Speed
  00 kt (0 mph)
Wind Gust
  00 kt (0 mph)
Altimeter
30.15 in
Visibility
10 SM
Temperature
24° C
75° F
Dewpoint
23° C
73° F
Humidity
94%
Sky Condition
Clear
VFR

METAR KIMS 270157Z AUTO 00000KT 10SM CLR 24/23 A3015 RMK AO1

FAA Disclaimer: The data displayed is for advisory purposes only and is not to be used for flight planning or operations.